sensor_id;sensor_type;location;lat;lon;timestamp;P1;durP1;ratioP1;P2;durP2;ratioP2
13374;SDS011;6756;51.354;15.754;2023-07-29T00:03:25;3.13;;;2.87;;
13374;SDS011;6756;51.354;15.754;2023-07-29T00:07:30;3.00;;;2.70;;
13374;SDS011;6756;51.354;15.754;2023-07-29T00:11:31;3.50;;;2.50;;
13374;SDS011;6756;51.354;15.754;2023-07-29T00:15:33;2.87;;;2.67;;
13374;SDS011;6756;51.354;15.754;2023-07-29T00:19:35;3.27;;;2.90;;
13374;SDS011;6756;51.354;15.754;2023-07-29T00:23:36;3.30;;;3.10;;
13374;SDS011;6756;51.354;15.754;2023-07-29T00:27:40;2.90;;;2.70;;
13374;SDS011;6756;51.354;15.754;2023-07-29T00:31:41;3.57;;;2.60;;
13374;SDS011;6756;51.354;15.754;2023-07-29T00:35:42;3.40;;;3.10;;
13374;SDS011;6756;51.354;15.754;2023-07-29T00:39:43;3.87;;;3.33;;
13374;SDS011;6756;51.354;15.754;2023-07-29T00:43:44;3.70;;;3.40;;
13374;SDS011;6756;51.354;15.754;2023-07-29T00:47:45;3.73;;;3.23;;
13374;SDS011;6756;51.354;15.754;2023-07-29T00:51:47;3.90;;;3.33;;
13374;SDS011;6756;51.354;15.754;2023-07-29T00:55:47;4.27;;;3.50;;
13374;SDS011;6756;51.354;15.754;2023-07-29T00:59:48;3.03;;;2.83;;
13374;SDS011;6756;51.354;15.754;2023-07-29T01:03:50;3.13;;;2.70;;
13374;SDS011;6756;51.354;15.754;2023-07-29T01:07:53;3.37;;;3.07;;
13374;SDS011;6756;51.354;15.754;2023-07-29T01:12:35;3.33;;;3.00;;
13374;SDS011;6756;51.354;15.754;2023-07-29T01:17:00;3.50;;;3.20;;
13374;SDS011;6756;51.354;15.754;2023-07-29T01:21:08;3.43;;;3.13;;
13374;SDS011;6756;51.354;15.754;2023-07-29T01:25:16;3.50;;;3.20;;
13374;SDS011;6756;51.354;15.754;2023-07-29T01:29:17;3.20;;;2.90;;
13374;SDS011;6756;51.354;15.754;2023-07-29T01:37:47;3.97;;;3.57;;
13374;SDS011;6756;51.354;15.754;2023-07-29T01:41:51;4.40;;;4.00;;
13374;SDS011;6756;51.354;15.754;2023-07-29T01:45:52;3.70;;;3.37;;
13374;SDS011;6756;51.354;15.754;2023-07-29T01:49:53;3.63;;;3.33;;
13374;SDS011;6756;51.354;15.754;2023-07-29T01:53:53;4.03;;;3.63;;
13374;SDS011;6756;51.354;15.754;2023-07-29T01:57:55;3.43;;;3.00;;
13374;SDS011;6756;51.354;15.754;2023-07-29T02:01:56;4.07;;;3.67;;
13374;SDS011;6756;51.354;15.754;2023-07-29T02:05:57;5.13;;;3.30;;
13374;SDS011;6756;51.354;15.754;2023-07-29T02:09:58;3.83;;;3.53;;
13374;SDS011;6756;51.354;15.754;2023-07-29T02:13:59;6.97;;;3.73;;
13374;SDS011;6756;51.354;15.754;2023-07-29T02:18:00;3.40;;;3.10;;
13374;SDS011;6756;51.354;15.754;2023-07-29T02:22:02;3.27;;;2.97;;
13374;SDS011;6756;51.354;15.754;2023-07-29T02:26:03;3.57;;;3.27;;
13374;SDS011;6756;51.354;15.754;2023-07-29T02:30:04;3.30;;;3.00;;
13374;SDS011;6756;51.354;15.754;2023-07-29T02:34:06;3.50;;;3.07;;
13374;SDS011;6756;51.354;15.754;2023-07-29T02:38:07;3.60;;;3.13;;
13374;SDS011;6756;51.354;15.754;2023-07-29T02:42:07;4.50;;;2.70;;
13374;SDS011;6756;51.354;15.754;2023-07-29T02:46:18;4.67;;;3.00;;
13374;SDS011;6756;51.354;15.754;2023-07-29T02:50:19;5.00;;;2.97;;
13374;SDS011;6756;51.354;15.754;2023-07-29T02:54:20;2.70;;;2.50;;
13374;SDS011;6756;51.354;15.754;2023-07-29T02:58:21;5.10;;;2.60;;
13374;SDS011;6756;51.354;15.754;2023-07-29T03:02:22;2.60;;;2.40;;
13374;SDS011;6756;51.354;15.754;2023-07-29T03:06:23;3.10;;;2.40;;
13374;SDS011;6756;51.354;15.754;2023-07-29T03:10:30;3.53;;;2.57;;
13374;SDS011;6756;51.354;15.754;2023-07-29T03:14:30;2.03;;;1.90;;
13374;SDS011;6756;51.354;15.754;2023-07-29T03:18:31;2.23;;;2.03;;
13374;SDS011;6756;51.354;15.754;2023-07-29T03:22:32;2.50;;;2.10;;
13374;SDS011;6756;51.354;15.754;2023-07-29T03:26:33;2.80;;;2.20;;
13374;SDS011;6756;51.354;15.754;2023-07-29T03:30:34;3.53;;;2.10;;
13374;SDS011;6756;51.354;15.754;2023-07-29T03:34:35;2.80;;;2.00;;
13374;SDS011;6756;51.354;15.754;2023-07-29T03:38:36;3.20;;;2.70;;
13374;SDS011;6756;51.354;15.754;2023-07-29T03:42:40;2.47;;;2.27;;
13374;SDS011;6756;51.354;15.754;2023-07-29T03:46:40;3.97;;;2.20;;
13374;SDS011;6756;51.354;15.754;2023-07-29T03:50:41;2.37;;;2.17;;
13374;SDS011;6756;51.354;15.754;2023-07-29T03:54:42;2.40;;;2.20;;
13374;SDS011;6756;51.354;15.754;2023-07-29T03:58:43;2.80;;;2.30;;
13374;SDS011;6756;51.354;15.754;2023-07-29T04:02:48;3.30;;;2.17;;
13374;SDS011;6756;51.354;15.754;2023-07-29T04:06:49;5.00;;;2.20;;
13374;SDS011;6756;51.354;15.754;2023-07-29T04:10:49;2.00;;;1.33;;
13374;SDS011;6756;51.354;15.754;2023-07-29T04:14:50;2.73;;;1.30;;
13374;SDS011;6756;51.354;15.754;2023-07-29T04:18:51;3.10;;;1.47;;
13374;SDS011;6756;51.354;15.754;2023-07-29T04:22:55;2.70;;;1.27;;
13374;SDS011;6756;51.354;15.754;2023-07-29T04:26:55;1.80;;;1.30;;
13374;SDS011;6756;51.354;15.754;2023-07-29T04:30:56;2.20;;;1.10;;
13374;SDS011;6756;51.354;15.754;2023-07-29T04:34:57;2.40;;;1.20;;
13374;SDS011;6756;51.354;15.754;2023-07-29T04:38:58;1.20;;;1.10;;
13374;SDS011;6756;51.354;15.754;2023-07-29T04:43:02;2.23;;;1.20;;
13374;SDS011;6756;51.354;15.754;2023-07-29T04:47:08;1.40;;;0.90;;
13374;SDS011;6756;51.354;15.754;2023-07-29T04:51:10;2.70;;;1.30;;
13374;SDS011;6756;51.354;15.754;2023-07-29T04:55:11;2.70;;;1.20;;
13374;SDS011;6756;51.354;15.754;2023-07-29T04:59:11;1.10;;;1.00;;
13374;SDS011;6756;51.354;15.754;2023-07-29T05:03:13;1.30;;;1.10;;
13374;SDS011;6756;51.354;15.754;2023-07-29T05:07:13;2.13;;;1.27;;
13374;SDS011;6756;51.354;15.754;2023-07-29T05:11:14;1.27;;;0.97;;
13374;SDS011;6756;51.354;15.754;2023-07-29T05:15:15;2.13;;;1.00;;
13374;SDS011;6756;51.354;15.754;2023-07-29T05:19:16;1.83;;;1.10;;
13374;SDS011;6756;51.354;15.754;2023-07-29T05:23:17;1.30;;;1.13;;
13374;SDS011;6756;51.354;15.754;2023-07-29T05:27:18;4.00;;;1.50;;
13374;SDS011;6756;51.354;15.754;2023-07-29T05:31:19;1.40;;;1.20;;
13374;SDS011;6756;51.354;15.754;2023-07-29T05:35:22;1.53;;;1.07;;
13374;SDS011;6756;51.354;15.754;2023-07-29T05:39:26;1.20;;;1.00;;
13374;SDS011;6756;51.354;15.754;2023-07-29T05:43:27;3.03;;;1.00;;
13374;SDS011;6756;51.354;15.754;2023-07-29T05:47:27;1.70;;;0.90;;
13374;SDS011;6756;51.354;15.754;2023-07-29T05:51:31;4.30;;;1.30;;
13374;SDS011;6756;51.354;15.754;2023-07-29T05:55:32;1.07;;;0.97;;
13374;SDS011;6756;51.354;15.754;2023-07-29T05:59:33;4.80;;;1.30;;
13374;SDS011;6756;51.354;15.754;2023-07-29T06:03:34;1.20;;;1.10;;
13374;SDS011;6756;51.354;15.754;2023-07-29T06:07:34;0.97;;;0.90;;
13374;SDS011;6756;51.354;15.754;2023-07-29T06:11:35;3.03;;;1.27;;
13374;SDS011;6756;51.354;15.754;2023-07-29T06:15:36;1.83;;;0.90;;
13374;SDS011;6756;51.354;15.754;2023-07-29T06:19:37;1.80;;;1.10;;
13374;SDS011;6756;51.354;15.754;2023-07-29T06:23:44;1.13;;;1.03;;
13374;SDS011;6756;51.354;15.754;2023-07-29T06:27:45;1.20;;;1.10;;
13374;SDS011;6756;51.354;15.754;2023-07-29T06:31:46;1.70;;;1.00;;
13374;SDS011;6756;51.354;15.754;2023-07-29T06:35:47;0.90;;;0.80;;
13374;SDS011;6756;51.354;15.754;2023-07-29T06:39:48;1.37;;;0.97;;
13374;SDS011;6756;51.354;15.754;2023-07-29T06:43:49;1.87;;;1.00;;
13374;SDS011;6756;51.354;15.754;2023-07-29T06:47:52;1.50;;;0.90;;
13374;SDS011;6756;51.354;15.754;2023-07-29T06:51:53;2.03;;;1.70;;
13374;SDS011;6756;51.354;15.754;2023-07-29T06:55:54;2.57;;;1.50;;
13374;SDS011;6756;51.354;15.754;2023-07-29T06:59:55;2.43;;;1.00;;
13374;SDS011;6756;51.354;15.754;2023-07-29T07:03:55;0.90;;;0.90;;
13374;SDS011;6756;51.354;15.754;2023-07-29T07:07:58;0.93;;;0.80;;
13374;SDS011;6756;51.354;15.754;2023-07-29T07:11:59;4.07;;;0.90;;
13374;SDS011;6756;51.354;15.754;2023-07-29T07:16:00;4.47;;;1.03;;
13374;SDS011;6756;51.354;15.754;2023-07-29T07:20:04;2.17;;;1.00;;
13374;SDS011;6756;51.354;15.754;2023-07-29T07:24:06;0.95;;;0.85;;
13374;SDS011;6756;51.354;15.754;2023-07-29T07:28:07;0.80;;;0.75;;
13374;SDS011;6756;51.354;15.754;2023-07-29T07:32:09;0.93;;;0.73;;
13374;SDS011;6756;51.354;15.754;2023-07-29T07:36:13;0.80;;;0.80;;
13374;SDS011;6756;51.354;15.754;2023-07-29T07:40:16;1.58;;;1.30;;
13374;SDS011;6756;51.354;15.754;2023-07-29T07:44:17;1.02;;;0.80;;
13374;SDS011;6756;51.354;15.754;2023-07-29T07:48:19;0.82;;;0.80;;
13374;SDS011;6756;51.354;15.754;2023-07-29T07:52:21;1.20;;;1.10;;
13374;SDS011;6756;51.354;15.754;2023-07-29T07:56:22;1.30;;;0.98;;
13374;SDS011;6756;51.354;15.754;2023-07-29T08:00:23;0.98;;;0.82;;
13374;SDS011;6756;51.354;15.754;2023-07-29T08:04:23;1.10;;;0.90;;
13374;SDS011;6756;51.354;15.754;2023-07-29T08:08:25;1.42;;;1.10;;
13374;SDS011;6756;51.354;15.754;2023-07-29T08:12:26;2.13;;;1.40;;
13374;SDS011;6756;51.354;15.754;2023-07-29T08:16:30;1.30;;;1.00;;
13374;SDS011;6756;51.354;15.754;2023-07-29T08:20:31;1.05;;;0.68;;
13374;SDS011;6756;51.354;15.754;2023-07-29T08:24:32;0.93;;;0.85;;
13374;SDS011;6756;51.354;15.754;2023-07-29T08:32:39;0.93;;;0.82;;
13374;SDS011;6756;51.354;15.754;2023-07-29T08:36:39;1.10;;;0.98;;
13374;SDS011;6756;51.354;15.754;2023-07-29T08:44:54;1.05;;;0.90;;
13374;SDS011;6756;51.354;15.754;2023-07-29T08:48:56;1.00;;;0.90;;
13374;SDS011;6756;51.354;15.754;2023-07-29T08:52:57;0.80;;;0.65;;
13374;SDS011;6756;51.354;15.754;2023-07-29T08:57:00;1.08;;;0.98;;
13374;SDS011;6756;51.354;15.754;2023-07-29T09:01:04;1.13;;;0.90;;
13374;SDS011;6756;51.354;15.754;2023-07-29T09:05:06;1.40;;;0.90;;
13374;SDS011;6756;51.354;15.754;2023-07-29T09:09:08;1.00;;;0.80;;
13374;SDS011;6756;51.354;15.754;2023-07-29T09:13:09;0.77;;;0.77;;
13374;SDS011;6756;51.354;15.754;2023-07-29T09:17:10;0.80;;;0.60;;
13374;SDS011;6756;51.354;15.754;2023-07-29T09:21:11;0.68;;;0.50;;
13374;SDS011;6756;51.354;15.754;2023-07-29T09:25:14;0.70;;;0.63;;
13374;SDS011;6756;51.354;15.754;2023-07-29T09:29:21;3.33;;;0.90;;
13374;SDS011;6756;51.354;15.754;2023-07-29T09:33:25;1.67;;;0.70;;
13374;SDS011;6756;51.354;15.754;2023-07-29T09:37:26;1.25;;;0.85;;
13374;SDS011;6756;51.354;15.754;2023-07-29T09:41:28;0.73;;;0.73;;
13374;SDS011;6756;51.354;15.754;2023-07-29T09:45:35;1.00;;;0.90;;
13374;SDS011;6756;51.354;15.754;2023-07-29T09:49:37;1.23;;;1.00;;
13374;SDS011;6756;51.354;15.754;2023-07-29T09:53:45;1.23;;;0.77;;
13374;SDS011;6756;51.354;15.754;2023-07-29T09:57:54;1.20;;;1.10;;
13374;SDS011;6756;51.354;15.754;2023-07-29T10:02:15;1.35;;;0.90;;
13374;SDS011;6756;51.354;15.754;2023-07-29T10:06:17;0.98;;;0.88;;
13374;SDS011;6756;51.354;15.754;2023-07-29T10:10:18;1.42;;;1.23;;
13374;SDS011;6756;51.354;15.754;2023-07-29T10:14:21;1.20;;;1.00;;
13374;SDS011;6756;51.354;15.754;2023-07-29T10:18:23;1.10;;;1.00;;
13374;SDS011;6756;51.354;15.754;2023-07-29T10:22:26;1.08;;;0.98;;
13374;SDS011;6756;51.354;15.754;2023-07-29T10:26:29;2.15;;;0.85;;
13374;SDS011;6756;51.354;15.754;2023-07-29T10:30:33;1.00;;;1.00;;
13374;SDS011;6756;51.354;15.754;2023-07-29T10:34:35;0.95;;;0.93;;
13374;SDS011;6756;51.354;15.754;2023-07-29T10:38:36;1.27;;;1.08;;
13374;SDS011;6756;51.354;15.754;2023-07-29T10:42:38;1.35;;;1.25;;
13374;SDS011;6756;51.354;15.754;2023-07-29T10:46:59;1.10;;;0.95;;
13374;SDS011;6756;51.354;15.754;2023-07-29T10:55:33;0.88;;;0.77;;
13374;SDS011;6756;51.354;15.754;2023-07-29T10:59:37;0.90;;;0.80;;
13374;SDS011;6756;51.354;15.754;2023-07-29T11:03:38;2.08;;;0.70;;
13374;SDS011;6756;51.354;15.754;2023-07-29T11:07:48;1.33;;;0.85;;
13374;SDS011;6756;51.354;15.754;2023-07-29T11:11:49;0.75;;;0.70;;
13374;SDS011;6756;51.354;15.754;2023-07-29T11:15:50;0.80;;;0.73;;
13374;SDS011;6756;51.354;15.754;2023-07-29T11:19:53;1.30;;;0.80;;
13374;SDS011;6756;51.354;15.754;2023-07-29T11:23:56;2.05;;;0.90;;
13374;SDS011;6756;51.354;15.754;2023-07-29T11:28:01;1.13;;;0.73;;
13374;SDS011;6756;51.354;15.754;2023-07-29T11:32:02;1.23;;;0.63;;
13374;SDS011;6756;51.354;15.754;2023-07-29T11:36:03;0.82;;;0.82;;
13374;SDS011;6756;51.354;15.754;2023-07-29T11:40:18;2.20;;;1.00;;
13374;SDS011;6756;51.354;15.754;2023-07-29T11:44:20;1.70;;;0.90;;
13374;SDS011;6756;51.354;15.754;2023-07-29T11:48:31;1.10;;;0.80;;
13374;SDS011;6756;51.354;15.754;2023-07-29T11:52:33;1.13;;;1.00;;
13374;SDS011;6756;51.354;15.754;2023-07-29T11:56:34;2.28;;;1.60;;
13374;SDS011;6756;51.354;15.754;2023-07-29T12:00:38;2.38;;;1.15;;
13374;SDS011;6756;51.354;15.754;2023-07-29T12:04:40;2.22;;;1.30;;
13374;SDS011;6756;51.354;15.754;2023-07-29T12:08:46;1.00;;;0.88;;
13374;SDS011;6756;51.354;15.754;2023-07-29T12:12:47;3.10;;;0.90;;
13374;SDS011;6756;51.354;15.754;2023-07-29T12:16:50;0.73;;;0.68;;
13374;SDS011;6756;51.354;15.754;2023-07-29T12:20:53;0.82;;;0.80;;
13374;SDS011;6756;51.354;15.754;2023-07-29T12:24:54;1.42;;;1.00;;
13374;SDS011;6756;51.354;15.754;2023-07-29T12:28:55;1.00;;;0.90;;
13374;SDS011;6756;51.354;15.754;2023-07-29T12:32:58;1.05;;;0.95;;
13374;SDS011;6756;51.354;15.754;2023-07-29T12:36:59;1.33;;;0.73;;
13374;SDS011;6756;51.354;15.754;2023-07-29T12:41:03;3.10;;;0.88;;
13374;SDS011;6756;51.354;15.754;2023-07-29T12:45:04;2.20;;;0.73;;
13374;SDS011;6756;51.354;15.754;2023-07-29T12:49:05;1.25;;;0.77;;
13374;SDS011;6756;51.354;15.754;2023-07-29T12:53:06;0.93;;;0.90;;
13374;SDS011;6756;51.354;15.754;2023-07-29T12:57:08;1.35;;;0.95;;
13374;SDS011;6756;51.354;15.754;2023-07-29T13:01:08;2.17;;;0.90;;
13374;SDS011;6756;51.354;15.754;2023-07-29T13:05:11;3.15;;;1.00;;
13374;SDS011;6756;51.354;15.754;2023-07-29T13:09:12;2.13;;;1.20;;
13374;SDS011;6756;51.354;15.754;2023-07-29T13:13:13;1.20;;;1.10;;
13374;SDS011;6756;51.354;15.754;2023-07-29T13:17:14;3.30;;;1.08;;
13374;SDS011;6756;51.354;15.754;2023-07-29T13:21:14;1.23;;;0.93;;
13374;SDS011;6756;51.354;15.754;2023-07-29T13:25:15;2.42;;;1.00;;
13374;SDS011;6756;51.354;15.754;2023-07-29T13:29:16;1.27;;;1.08;;
13374;SDS011;6756;51.354;15.754;2023-07-29T13:33:17;1.73;;;0.88;;
13374;SDS011;6756;51.354;15.754;2023-07-29T13:37:17;1.77;;;0.60;;
13374;SDS011;6756;51.354;15.754;2023-07-29T13:41:18;0.80;;;0.70;;
13374;SDS011;6756;51.354;15.754;2023-07-29T13:45:19;0.98;;;0.75;;
13374;SDS011;6756;51.354;15.754;2023-07-29T13:49:20;1.00;;;0.80;;
13374;SDS011;6756;51.354;15.754;2023-07-29T13:53:20;0.80;;;0.70;;
13374;SDS011;6756;51.354;15.754;2023-07-29T13:57:21;0.80;;;0.73;;
13374;SDS011;6756;51.354;15.754;2023-07-29T14:01:22;2.08;;;0.80;;
13374;SDS011;6756;51.354;15.754;2023-07-29T14:05:23;1.05;;;0.80;;
13374;SDS011;6756;51.354;15.754;2023-07-29T14:09:24;1.00;;;0.90;;
13374;SDS011;6756;51.354;15.754;2023-07-29T14:13:25;0.80;;;0.65;;
13374;SDS011;6756;51.354;15.754;2023-07-29T14:17:26;4.78;;;0.82;;
13374;SDS011;6756;51.354;15.754;2023-07-29T14:21:27;2.78;;;0.88;;
13374;SDS011;6756;51.354;15.754;2023-07-29T14:25:28;2.35;;;0.90;;
13374;SDS011;6756;51.354;15.754;2023-07-29T14:29:29;1.13;;;0.70;;
13374;SDS011;6756;51.354;15.754;2023-07-29T14:33:30;1.37;;;0.70;;
13374;SDS011;6756;51.354;15.754;2023-07-29T14:37:31;0.80;;;0.50;;
13374;SDS011;6756;51.354;15.754;2023-07-29T14:41:32;1.23;;;0.80;;
13374;SDS011;6756;51.354;15.754;2023-07-29T14:45:32;1.03;;;0.63;;
13374;SDS011;6756;51.354;15.754;2023-07-29T14:49:33;2.87;;;1.03;;
13374;SDS011;6756;51.354;15.754;2023-07-29T14:53:34;0.93;;;0.60;;
13374;SDS011;6756;51.354;15.754;2023-07-29T14:57:34;3.22;;;0.60;;
13374;SDS011;6756;51.354;15.754;2023-07-29T15:01:36;1.80;;;0.50;;
13374;SDS011;6756;51.354;15.754;2023-07-29T15:05:36;0.82;;;0.40;;
13374;SDS011;6756;51.354;15.754;2023-07-29T15:09:37;1.42;;;0.70;;
13374;SDS011;6756;51.354;15.754;2023-07-29T15:13:38;1.35;;;0.40;;
13374;SDS011;6756;51.354;15.754;2023-07-29T15:17:39;1.15;;;0.35;;
13374;SDS011;6756;51.354;15.754;2023-07-29T15:21:39;2.05;;;0.50;;
13374;SDS011;6756;51.354;15.754;2023-07-29T15:25:40;1.05;;;0.60;;
13374;SDS011;6756;51.354;15.754;2023-07-29T15:29:41;1.17;;;0.50;;
13374;SDS011;6756;51.354;15.754;2023-07-29T15:33:41;0.98;;;0.50;;
13374;SDS011;6756;51.354;15.754;2023-07-29T15:37:42;0.90;;;0.50;;
13374;SDS011;6756;51.354;15.754;2023-07-29T15:41:46;0.82;;;0.40;;
13374;SDS011;6756;51.354;15.754;2023-07-29T15:45:47;2.05;;;0.40;;
13374;SDS011;6756;51.354;15.754;2023-07-29T15:49:47;0.70;;;0.50;;
13374;SDS011;6756;51.354;15.754;2023-07-29T15:53:48;0.63;;;0.50;;
13374;SDS011;6756;51.354;15.754;2023-07-29T15:57:50;1.23;;;0.60;;
13374;SDS011;6756;51.354;15.754;2023-07-29T16:01:50;0.75;;;0.52;;
13374;SDS011;6756;51.354;15.754;2023-07-29T16:05:51;1.30;;;0.60;;
13374;SDS011;6756;51.354;15.754;2023-07-29T16:09:52;0.70;;;0.38;;
13374;SDS011;6756;51.354;15.754;2023-07-29T16:13:53;3.15;;;0.52;;
13374;SDS011;6756;51.354;15.754;2023-07-29T16:17:53;1.20;;;0.60;;
13374;SDS011;6756;51.354;15.754;2023-07-29T16:21:54;2.13;;;0.60;;
13374;SDS011;6756;51.354;15.754;2023-07-29T16:25:55;0.73;;;0.50;;
13374;SDS011;6756;51.354;15.754;2023-07-29T16:29:56;1.23;;;0.70;;
13374;SDS011;6756;51.354;15.754;2023-07-29T16:33:57;1.25;;;0.90;;
13374;SDS011;6756;51.354;15.754;2023-07-29T16:37:58;2.30;;;0.55;;
13374;SDS011;6756;51.354;15.754;2023-07-29T16:42:00;1.90;;;0.75;;
13374;SDS011;6756;51.354;15.754;2023-07-29T16:46:01;2.70;;;0.95;;
13374;SDS011;6756;51.354;15.754;2023-07-29T16:50:02;2.22;;;1.00;;
13374;SDS011;6756;51.354;15.754;2023-07-29T16:54:03;1.67;;;0.50;;
13374;SDS011;6756;51.354;15.754;2023-07-29T16:58:04;1.10;;;0.80;;
13374;SDS011;6756;51.354;15.754;2023-07-29T17:02:04;1.27;;;0.70;;
13374;SDS011;6756;51.354;15.754;2023-07-29T17:06:06;1.17;;;0.60;;
13374;SDS011;6756;51.354;15.754;2023-07-29T17:10:07;1.65;;;0.52;;
13374;SDS011;6756;51.354;15.754;2023-07-29T17:14:08;0.88;;;0.60;;
13374;SDS011;6756;51.354;15.754;2023-07-29T17:18:09;0.80;;;0.50;;
13374;SDS011;6756;51.354;15.754;2023-07-29T17:22:12;0.70;;;0.50;;
13374;SDS011;6756;51.354;15.754;2023-07-29T17:26:13;0.80;;;0.57;;
13374;SDS011;6756;51.354;15.754;2023-07-29T17:30:14;1.07;;;0.93;;
13374;SDS011;6756;51.354;15.754;2023-07-29T17:34:14;3.23;;;2.00;;
13374;SDS011;6756;51.354;15.754;2023-07-29T17:38:15;3.50;;;0.80;;
13374;SDS011;6756;51.354;15.754;2023-07-29T17:42:16;1.17;;;0.70;;
13374;SDS011;6756;51.354;15.754;2023-07-29T17:46:17;1.00;;;0.70;;
13374;SDS011;6756;51.354;15.754;2023-07-29T17:50:18;1.37;;;0.80;;
13374;SDS011;6756;51.354;15.754;2023-07-29T17:54:22;1.27;;;1.10;;
13374;SDS011;6756;51.354;15.754;2023-07-29T17:58:22;1.93;;;0.70;;
13374;SDS011;6756;51.354;15.754;2023-07-29T18:02:23;0.90;;;0.77;;
13374;SDS011;6756;51.354;15.754;2023-07-29T18:06:24;1.03;;;0.60;;
13374;SDS011;6756;51.354;15.754;2023-07-29T18:10:25;0.90;;;0.63;;
13374;SDS011;6756;51.354;15.754;2023-07-29T18:14:25;1.97;;;0.90;;
13374;SDS011;6756;51.354;15.754;2023-07-29T18:18:27;2.03;;;1.20;;
13374;SDS011;6756;51.354;15.754;2023-07-29T18:22:29;6.10;;;5.03;;
13374;SDS011;6756;51.354;15.754;2023-07-29T18:26:29;3.00;;;1.70;;
13374;SDS011;6756;51.354;15.754;2023-07-29T18:30:30;1.60;;;1.30;;
13374;SDS011;6756;51.354;15.754;2023-07-29T18:34:31;5.40;;;1.53;;
13374;SDS011;6756;51.354;15.754;2023-07-29T18:38:32;2.50;;;1.20;;
13374;SDS011;6756;51.354;15.754;2023-07-29T18:42:33;2.30;;;1.20;;
13374;SDS011;6756;51.354;15.754;2023-07-29T18:46:34;1.20;;;0.60;;
13374;SDS011;6756;51.354;15.754;2023-07-29T18:50:35;1.70;;;0.70;;
13374;SDS011;6756;51.354;15.754;2023-07-29T18:54:35;2.60;;;0.70;;
13374;SDS011;6756;51.354;15.754;2023-07-29T18:58:38;4.57;;;1.10;;
13374;SDS011;6756;51.354;15.754;2023-07-29T19:02:39;4.07;;;0.93;;
13374;SDS011;6756;51.354;15.754;2023-07-29T19:06:41;3.97;;;0.93;;
13374;SDS011;6756;51.354;15.754;2023-07-29T19:10:42;3.03;;;1.37;;
13374;SDS011;6756;51.354;15.754;2023-07-29T19:14:43;1.93;;;0.80;;
13374;SDS011;6756;51.354;15.754;2023-07-29T19:18:44;1.87;;;0.90;;
13374;SDS011;6756;51.354;15.754;2023-07-29T19:22:44;1.20;;;0.83;;
13374;SDS011;6756;51.354;15.754;2023-07-29T19:26:45;4.67;;;1.30;;
13374;SDS011;6756;51.354;15.754;2023-07-29T19:30:46;1.73;;;1.10;;
13374;SDS011;6756;51.354;15.754;2023-07-29T19:34:50;1.00;;;0.67;;
13374;SDS011;6756;51.354;15.754;2023-07-29T19:38:54;1.47;;;1.00;;
13374;SDS011;6756;51.354;15.754;2023-07-29T19:42:54;1.07;;;0.87;;
13374;SDS011;6756;51.354;15.754;2023-07-29T19:46:55;1.70;;;1.10;;
13374;SDS011;6756;51.354;15.754;2023-07-29T19:50:56;1.00;;;0.87;;
13374;SDS011;6756;51.354;15.754;2023-07-29T19:54:58;1.67;;;1.23;;
13374;SDS011;6756;51.354;15.754;2023-07-29T19:58:59;1.57;;;1.17;;
13374;SDS011;6756;51.354;15.754;2023-07-29T20:02:59;1.63;;;1.10;;
13374;SDS011;6756;51.354;15.754;2023-07-29T20:07:00;2.10;;;1.40;;
13374;SDS011;6756;51.354;15.754;2023-07-29T20:11:01;2.30;;;1.27;;
13374;SDS011;6756;51.354;15.754;2023-07-29T20:15:02;1.73;;;1.20;;
13374;SDS011;6756;51.354;15.754;2023-07-29T20:19:03;1.83;;;1.13;;
13374;SDS011;6756;51.354;15.754;2023-07-29T20:23:04;1.83;;;1.47;;
13374;SDS011;6756;51.354;15.754;2023-07-29T20:27:06;2.70;;;1.20;;
13374;SDS011;6756;51.354;15.754;2023-07-29T20:31:07;1.90;;;1.33;;
13374;SDS011;6756;51.354;15.754;2023-07-29T20:35:08;1.80;;;1.30;;
13374;SDS011;6756;51.354;15.754;2023-07-29T20:39:09;2.40;;;1.50;;
13374;SDS011;6756;51.354;15.754;2023-07-29T20:43:10;3.17;;;1.50;;
13374;SDS011;6756;51.354;15.754;2023-07-29T20:47:11;2.50;;;1.63;;
13374;SDS011;6756;51.354;15.754;2023-07-29T20:51:14;1.90;;;1.13;;
13374;SDS011;6756;51.354;15.754;2023-07-29T20:55:17;3.17;;;1.40;;
13374;SDS011;6756;51.354;15.754;2023-07-29T20:59:17;3.47;;;1.20;;
13374;SDS011;6756;51.354;15.754;2023-07-29T21:03:18;1.73;;;1.23;;
13374;SDS011;6756;51.354;15.754;2023-07-29T21:07:19;1.80;;;1.50;;
13374;SDS011;6756;51.354;15.754;2023-07-29T21:11:19;1.60;;;1.50;;
13374;SDS011;6756;51.354;15.754;2023-07-29T21:15:20;4.60;;;1.50;;
13374;SDS011;6756;51.354;15.754;2023-07-29T21:19:21;2.20;;;1.43;;
13374;SDS011;6756;51.354;15.754;2023-07-29T21:23:22;1.73;;;1.33;;
13374;SDS011;6756;51.354;15.754;2023-07-29T21:27:23;3.30;;;1.60;;
13374;SDS011;6756;51.354;15.754;2023-07-29T21:31:24;3.33;;;1.63;;
13374;SDS011;6756;51.354;15.754;2023-07-29T21:35:24;3.30;;;1.63;;
13374;SDS011;6756;51.354;15.754;2023-07-29T21:39:25;2.30;;;1.70;;
13374;SDS011;6756;51.354;15.754;2023-07-29T21:43:26;3.83;;;1.50;;
13374;SDS011;6756;51.354;15.754;2023-07-29T21:47:27;2.50;;;1.60;;
13374;SDS011;6756;51.354;15.754;2023-07-29T21:51:27;2.57;;;1.53;;
13374;SDS011;6756;51.354;15.754;2023-07-29T21:55:28;2.47;;;1.53;;
13374;SDS011;6756;51.354;15.754;2023-07-29T21:59:29;3.17;;;1.93;;
13374;SDS011;6756;51.354;15.754;2023-07-29T22:03:29;1.90;;;1.50;;
13374;SDS011;6756;51.354;15.754;2023-07-29T22:07:30;2.07;;;1.30;;
13374;SDS011;6756;51.354;15.754;2023-07-29T22:11:31;3.00;;;1.63;;
13374;SDS011;6756;51.354;15.754;2023-07-29T22:15:35;2.13;;;1.50;;
13374;SDS011;6756;51.354;15.754;2023-07-29T22:19:36;3.77;;;1.90;;
13374;SDS011;6756;51.354;15.754;2023-07-29T22:23:37;2.70;;;1.67;;
13374;SDS011;6756;51.354;15.754;2023-07-29T22:27:38;2.60;;;1.77;;
13374;SDS011;6756;51.354;15.754;2023-07-29T22:31:38;3.40;;;1.80;;
13374;SDS011;6756;51.354;15.754;2023-07-29T22:35:39;2.77;;;1.80;;
13374;SDS011;6756;51.354;15.754;2023-07-29T22:39:40;2.30;;;1.87;;
13374;SDS011;6756;51.354;15.754;2023-07-29T22:43:43;3.07;;;1.70;;
13374;SDS011;6756;51.354;15.754;2023-07-29T22:47:43;3.33;;;2.20;;
13374;SDS011;6756;51.354;15.754;2023-07-29T22:51:44;2.63;;;1.77;;
13374;SDS011;6756;51.354;15.754;2023-07-29T22:55:45;3.67;;;1.80;;
13374;SDS011;6756;51.354;15.754;2023-07-29T22:59:48;4.57;;;2.00;;
13374;SDS011;6756;51.354;15.754;2023-07-29T23:03:49;2.27;;;1.80;;
13374;SDS011;6756;51.354;15.754;2023-07-29T23:07:49;2.60;;;1.90;;
13374;SDS011;6756;51.354;15.754;2023-07-29T23:11:50;4.50;;;2.03;;
13374;SDS011;6756;51.354;15.754;2023-07-29T23:15:51;2.17;;;1.90;;
13374;SDS011;6756;51.354;15.754;2023-07-29T23:19:52;2.20;;;1.90;;
13374;SDS011;6756;51.354;15.754;2023-07-29T23:23:53;2.77;;;2.00;;
13374;SDS011;6756;51.354;15.754;2023-07-29T23:27:53;4.10;;;2.03;;
13374;SDS011;6756;51.354;15.754;2023-07-29T23:31:54;2.10;;;1.90;;
13374;SDS011;6756;51.354;15.754;2023-07-29T23:35:59;2.57;;;2.23;;
13374;SDS011;6756;51.354;15.754;2023-07-29T23:40:01;4.63;;;2.10;;
13374;SDS011;6756;51.354;15.754;2023-07-29T23:44:02;2.87;;;2.20;;
13374;SDS011;6756;51.354;15.754;2023-07-29T23:48:03;2.93;;;2.23;;
13374;SDS011;6756;51.354;15.754;2023-07-29T23:52:03;2.37;;;2.17;;
13374;SDS011;6756;51.354;15.754;2023-07-29T23:56:05;2.67;;;1.90;;
